Time;durP1;ratioP1;P1;durP2;ratioP2;P2;SDS_P1;SDS_P2;PMS_P1;PMS_P2;Temp;Humidity;BMP_temperature;BMP_pressure;BME280_temperature;BME280_humidity;BME280_pressure;Samples;Min_cycle;Max_cycle;Signal;HPM_P1;HPM_P2
2021/12/01 00:01:09;;;;;;;12.50;3.60;;;;;;;;;;5072924;28;20032;-88
2021/12/01 00:03:34;;;;;;;17.48;5.05;;;;;;;;;;5054568;28;20024;-88
2021/12/01 00:05:59;;;;;;;16.08;4.28;;;;;;;;;;5072719;28;20021;-88
2021/12/01 00:08:25;;;;;;;15.45;3.70;;;;;;;;;;5072805;28;20032;-88
2021/12/01 00:10:50;;;;;;;19.25;5.38;;;;;;;;;;5054466;28;20036;-88
2021/12/01 00:13:17;;;;;;;17.70;4.32;;;;;;;;;;5072761;28;20031;-88
2021/12/01 00:15:43;;;;;;;12.80;3.42;;;;;;;;;;5054390;28;20034;-88
2021/12/01 00:18:09;;;;;;;12.75;3.80;;;;;;;;;;5072385;28;20122;-88
2021/12/01 00:20:35;;;;;;;18.73;4.45;;;;;;;;;;5072407;28;20481;-88
2021/12/01 00:23:00;;;;;;;14.00;3.00;;;;;;;;;;5072196;28;20107;-88
2021/12/01 00:25:26;;;;;;;14.25;3.33;;;;;;;;;;5072754;28;20696;-88
2021/12/01 00:27:52;;;;;;;14.93;4.22;;;;;;;;;;5054112;28;20035;-88
2021/12/01 00:30:18;;;;;;;21.20;4.13;;;;;;;;;;5072187;28;20029;-88
2021/12/01 00:32:44;;;;;;;14.10;3.50;;;;;;;;;;5054018;28;20043;-88
2021/12/01 00:35:09;;;;;;;15.02;3.00;;;;;;;;;;5072384;28;20027;-88
2021/12/01 00:37:35;;;;;;;22.90;3.67;;;;;;;;;;5072196;28;20112;-88
2021/12/01 00:40:00;;;;;;;13.45;3.30;;;;;;;;;;5071991;28;20064;-88
2021/12/01 00:42:26;;;;;;;11.52;2.78;;;;;;;;;;5072195;28;20028;-89
2021/12/01 00:45:00;;;;;;;22.42;3.42;;;;;;;;;;5053926;28;20032;-88
2021/12/01 00:48:08;;;;;;;16.70;3.92;;;;;;;;;;5053865;28;20021;-88
2021/12/01 00:50:16;;;;;;;12.20;3.30;;;;;;;;;;5064410;28;20431;-88
2021/12/01 00:52:41;;;;;;;16.67;2.85;;;;;;;;;;5071765;28;20044;-89
2021/12/01 00:55:07;;;;;;;33.65;4.82;;;;;;;;;;5071942;28;20063;-89
2021/12/01 00:57:32;;;;;;;12.43;2.83;;;;;;;;;;5053858;28;20033;-89
2021/12/01 00:59:58;;;;;;;20.10;4.25;;;;;;;;;;5053951;28;20759;-89
2021/12/01 01:02:23;;;;;;;20.38;3.75;;;;;;;;;;5053825;28;20017;-89
2021/12/01 01:04:48;;;;;;;15.57;4.45;;;;;;;;;;5071785;28;20044;-89
2021/12/01 01:07:13;;;;;;;18.35;3.13;;;;;;;;;;5053704;28;20054;-89
2021/12/01 01:09:40;;;;;;;11.90;3.22;;;;;;;;;;5071392;28;20033;-88
2021/12/01 01:17:38;;;;;;;22.48;4.78;;;;;;;;;;5071700;28;20043;-88
2021/12/01 01:20:09;;;;;;;20.45;4.13;;;;;;;;;;5071236;28;20052;-89
2021/12/01 01:22:34;;;;;;;12.35;3.53;;;;;;;;;;5071434;28;20128;-89
2021/12/01 01:25:01;;;;;;;17.08;5.13;;;;;;;;;;5071369;28;20431;-89
2021/12/01 01:27:26;;;;;;;15.55;3.35;;;;;;;;;;5071238;28;20020;-89
2021/12/01 01:29:52;;;;;;;15.50;3.63;;;;;;;;;;5052804;28;20401;-89
2021/12/01 01:32:17;;;;;;;13.77;3.35;;;;;;;;;;5053078;28;20101;-89
2021/12/01 01:34:42;;;;;;;15.48;3.72;;;;;;;;;;5053046;28;20032;-89
2021/12/01 01:37:08;;;;;;;19.48;4.32;;;;;;;;;;5053315;28;20047;-89
2021/12/01 01:39:33;;;;;;;16.70;3.03;;;;;;;;;;5070908;28;20020;-89
2021/12/01 01:41:58;;;;;;;15.00;3.92;;;;;;;;;;5053472;28;20031;-89
2021/12/01 01:44:24;;;;;;;16.33;3.42;;;;;;;;;;5053291;28;20032;-88
2021/12/01 01:46:49;;;;;;;14.05;3.80;;;;;;;;;;5053000;28;20130;-89
2021/12/01 01:49:18;;;;;;;19.75;3.97;;;;;;;;;;5052714;28;20860;-89
2021/12/01 01:51:44;;;;;;;27.08;4.60;;;;;;;;;;5052906;28;20766;-89
2021/12/01 01:54:10;;;;;;;24.05;5.30;;;;;;;;;;5070944;28;20024;-89
2021/12/01 01:56:35;;;;;;;22.58;4.93;;;;;;;;;;5070767;28;20020;-89
2021/12/01 01:59:02;;;;;;;16.95;4.20;;;;;;;;;;5070528;28;20443;-89
2021/12/01 02:04:02;;;;;;;18.58;4.03;;;;;;;;;;5071070;28;20149;-89
2021/12/01 02:06:27;;;;;;;21.48;6.07;;;;;;;;;;5070986;28;20025;-89
2021/12/01 02:08:54;;;;;;;22.08;4.80;;;;;;;;;;5052611;28;20024;-88
2021/12/01 02:11:20;;;;;;;25.25;5.65;;;;;;;;;;5052441;28;20055;-88
2021/12/01 02:13:45;;;;;;;21.00;4.50;;;;;;;;;;5052430;28;20048;-88
2021/12/01 02:16:12;;;;;;;26.75;4.30;;;;;;;;;;5070450;28;20456;-88
2021/12/01 02:18:40;;;;;;;22.63;4.30;;;;;;;;;;5052269;28;20456;-88
2021/12/01 02:21:08;;;;;;;16.67;3.70;;;;;;;;;;5070529;28;20100;-88
2021/12/01 02:23:34;;;;;;;17.13;4.78;;;;;;;;;;5070211;28;20031;-88
2021/12/01 02:26:00;;;;;;;20.90;4.07;;;;;;;;;;5052268;28;20036;-88
2021/12/01 02:28:25;;;;;;;18.20;3.95;;;;;;;;;;5070025;28;20024;-88
2021/12/01 02:30:50;;;;;;;18.40;5.35;;;;;;;;;;5052831;28;20085;-87
2021/12/01 02:33:16;;;;;;;19.27;5.45;;;;;;;;;;5052217;28;20026;-88
2021/12/01 02:35:41;;;;;;;24.27;4.93;;;;;;;;;;5070151;28;20044;-88
2021/12/01 02:38:06;;;;;;;20.13;4.45;;;;;;;;;;5051928;28;20020;-88
2021/12/01 02:40:32;;;;;;;26.33;4.10;;;;;;;;;;5069864;28;20437;-88
2021/12/01 02:42:57;;;;;;;30.85;6.00;;;;;;;;;;5056026;28;20025;-88
2021/12/01 02:45:22;;;;;;;18.60;4.70;;;;;;;;;;5056411;28;20387;-88
2021/12/01 02:47:48;;;;;;;20.08;5.35;;;;;;;;;;5056013;28;20049;-88
2021/12/01 02:50:13;;;;;;;25.65;4.40;;;;;;;;;;5055926;28;20032;-88
2021/12/01 02:52:39;;;;;;;20.73;4.00;;;;;;;;;;5073930;28;20559;-88
2021/12/01 02:55:05;;;;;;;29.90;6.45;;;;;;;;;;5056395;28;20024;-89
2021/12/01 02:57:47;;;;;;;26.90;5.47;;;;;;;;;;5056172;28;20159;-89
2021/12/01 03:00:12;;;;;;;;;;;;;;;;;;5056501;28;20056;-89
2021/12/01 03:02:38;;;;;;;28.70;5.75;;;;;;;;;;5056074;28;19954;-89
2021/12/01 03:05:04;;;;;;;23.85;5.40;;;;;;;;;;5056312;28;20051;-89
2021/12/01 03:07:31;;;;;;;25.05;4.95;;;;;;;;;;5074129;28;20024;-89
2021/12/01 03:09:56;;;;;;;19.42;5.43;;;;;;;;;;5056005;28;20043;-89
2021/12/01 03:12:21;;;;;;;25.20;6.13;;;;;;;;;;5074881;28;20028;-89
2021/12/01 03:14:48;;;;;;;17.77;5.38;;;;;;;;;;5074237;28;20024;-88
2021/12/01 03:17:13;;;;;;;26.17;5.75;;;;;;;;;;5074023;28;20396;-89
2021/12/01 03:19:38;;;;;;;20.23;5.32;;;;;;;;;;5073878;28;20012;-89
2021/12/01 03:22:04;;;;;;;25.85;6.15;;;;;;;;;;5055944;28;20050;-89
2021/12/01 03:24:32;;;;;;;30.73;7.13;;;;;;;;;;5073969;28;20495;-89
2021/12/01 03:26:58;;;;;;;28.75;6.35;;;;;;;;;;5055661;28;20937;-89
2021/12/01 03:29:23;;;;;;;29.05;5.85;;;;;;;;;;5055563;28;20032;-89
2021/12/01 03:31:48;;;;;;;21.23;6.80;;;;;;;;;;5055957;28;20127;-88
2021/12/01 03:34:14;;;;;;;20.80;6.15;;;;;;;;;;5073569;28;20021;-89
2021/12/01 03:36:39;;;;;;;26.45;7.50;;;;;;;;;;5055403;28;20131;-89
2021/12/01 03:39:04;;;;;;;16.85;6.75;;;;;;;;;;5073536;28;20492;-89
2021/12/01 03:41:29;;;;;;;24.88;7.72;;;;;;;;;;5073783;28;20027;-89
2021/12/01 03:43:55;;;;;;;19.40;7.75;;;;;;;;;;5055545;28;20456;-88
2021/12/01 03:46:21;;;;;;;18.27;7.32;;;;;;;;;;5073438;28;20032;-89
2021/12/01 03:48:47;;;;;;;24.33;8.52;;;;;;;;;;5055387;28;20056;-88
2021/12/01 03:51:12;;;;;;;20.00;7.53;;;;;;;;;;5073091;28;20033;-88
2021/12/01 03:53:37;;;;;;;23.35;7.53;;;;;;;;;;5072610;28;20024;-89
2021/12/01 03:56:02;;;;;;;21.95;8.60;;;;;;;;;;5072999;28;20070;-89
2021/12/01 03:58:28;;;;;;;19.10;9.05;;;;;;;;;;5054939;28;20066;-88
2021/12/01 04:00:53;;;;;;;9.85;6.45;;;;;;;;;;5074222;28;20078;-88
2021/12/01 04:03:18;;;;;;;18.52;8.50;;;;;;;;;;5072947;28;20039;-88
2021/12/01 04:05:43;;;;;;;16.15;8.60;;;;;;;;;;5072760;28;20349;-88
2021/12/01 04:08:09;;;;;;;15.13;7.10;;;;;;;;;;5072757;28;20360;-88
2021/12/01 04:10:35;;;;;;;20.08;8.48;;;;;;;;;;5072625;28;20025;-88
2021/12/01 04:13:00;;;;;;;15.85;7.72;;;;;;;;;;5055024;28;20020;-87
2021/12/01 04:15:25;;;;;;;18.58;7.10;;;;;;;;;;5054411;28;20020;-88
2021/12/01 04:17:50;;;;;;;21.73;9.07;;;;;;;;;;5072588;28;20032;-88
2021/12/01 04:20:16;;;;;;;17.55;8.00;;;;;;;;;;5072656;28;20025;-88
2021/12/01 04:22:43;;;;;;;15.95;8.43;;;;;;;;;;5054329;28;20028;-89
2021/12/01 04:25:09;;;;;;;16.95;8.05;;;;;;;;;;5072595;28;20024;-89
2021/12/01 04:27:35;;;;;;;23.20;9.73;;;;;;;;;;5054663;28;20110;-88
2021/12/01 04:30:00;;;;;;;17.80;9.00;;;;;;;;;;5072425;28;20798;-88
2021/12/01 04:32:25;;;;;;;17.13;9.07;;;;;;;;;;5054699;28;20016;-89
2021/12/01 04:34:50;;;;;;;22.23;10.07;;;;;;;;;;5072209;28;20085;-88
2021/12/01 04:37:16;;;;;;;17.15;8.57;;;;;;;;;;5072230;28;20027;-89
2021/12/01 04:39:41;;;;;;;18.33;8.65;;;;;;;;;;5072322;28;20832;-88
2021/12/01 04:42:07;;;;;;;17.55;9.98;;;;;;;;;;5072441;28;20012;-87
2021/12/01 04:44:34;;;;;;;14.02;9.00;;;;;;;;;;5053902;28;20157;-88
2021/12/01 04:47:02;;;;;;;14.52;9.40;;;;;;;;;;5071947;28;20100;-88
2021/12/01 04:49:27;;;;;;;20.20;10.30;;;;;;;;;;5071706;28;20048;-88
2021/12/01 04:51:55;;;;;;;14.40;9.70;;;;;;;;;;5053611;28;20012;-88
2021/12/01 04:54:21;;;;;;;18.42;10.00;;;;;;;;;;5071932;28;20028;-88
2021/12/01 04:56:47;;;;;;;22.88;11.45;;;;;;;;;;5071814;28;20081;-88
2021/12/01 04:59:12;;;;;;;22.20;11.35;;;;;;;;;;5071613;28;20464;-88
2021/12/01 05:01:37;;;;;;;17.92;11.05;;;;;;;;;;5071715;28;20031;-88
2021/12/01 05:04:03;;;;;;;17.80;11.82;;;;;;;;;;5071207;28;20861;-89
2021/12/01 05:06:29;;;;;;;18.55;10.90;;;;;;;;;;5053523;28;20408;-88
2021/12/01 05:08:54;;;;;;;23.90;12.45;;;;;;;;;;5071354;28;20020;-88
2021/12/01 05:11:19;;;;;;;18.98;11.95;;;;;;;;;;5053416;28;20036;-88
2021/12/01 05:13:46;;;;;;;19.20;11.77;;;;;;;;;;5071297;28;20025;-88
2021/12/01 05:16:11;;;;;;;24.92;13.18;;;;;;;;;;5071182;28;20025;-88
2021/12/01 05:18:37;;;;;;;27.63;13.50;;;;;;;;;;5071424;28;20021;-90
2021/12/01 05:21:03;;;;;;;35.78;16.27;;;;;;;;;;5053547;28;20074;-91
2021/12/01 05:23:29;;;;;;;23.17;14.48;;;;;;;;;;5035328;28;20524;-90
2021/12/01 05:25:54;;;;;;;29.05;15.20;;;;;;;;;;5032547;28;20021;-90
2021/12/01 05:28:22;;;;;;;29.30;15.30;;;;;;;;;;5076398;22;20522;-91
2021/12/01 05:30:48;;;;;;;34.20;16.50;;;;;;;;;;5047660;22;20061;-91
2021/12/01 05:35:46;;;;;;;21.35;13.75;;;;;;;;;;5028848;28;20494;-91
2021/12/01 05:38:14;;;;;;;21.45;13.05;;;;;;;;;;5013203;28;20072;-91
2021/12/01 05:40:43;;;;;;;;;;;;;;;;;;5025418;28;20029;-91
2021/12/01 05:43:08;;;;;;;27.17;13.75;;;;;;;;;;5012871;28;19916;-90
2021/12/01 05:45:34;;;;;;;18.98;12.60;;;;;;;;;;5012971;28;20017;-88
2021/12/01 05:47:59;;;;;;;24.73;13.55;;;;;;;;;;5011804;28;20880;-89
2021/12/01 05:50:24;;;;;;;27.75;13.98;;;;;;;;;;5011113;28;20057;-88
2021/12/01 05:52:51;;;;;;;23.17;13.13;;;;;;;;;;5011811;28;20132;-89
2021/12/01 05:55:16;;;;;;;33.60;15.93;;;;;;;;;;5029021;28;20018;-88
2021/12/01 05:57:41;;;;;;;26.13;14.73;;;;;;;;;;5011830;28;20385;-89
2021/12/01 06:00:08;;;;;;;27.63;14.85;;;;;;;;;;5011767;28;20079;-89
2021/12/01 06:02:34;;;;;;;34.92;15.57;;;;;;;;;;5029144;28;20024;-89
2021/12/01 06:04:59;;;;;;;22.80;13.77;;;;;;;;;;5027896;28;20025;-88
2021/12/01 06:07:24;;;;;;;30.08;15.32;;;;;;;;;;5028361;28;20033;-88
2021/12/01 06:09:49;;;;;;;28.50;15.65;;;;;;;;;;5011164;28;20037;-88
2021/12/01 06:12:15;;;;;;;31.13;15.23;;;;;;;;;;5028959;28;20101;-88
2021/12/01 06:14:41;;;;;;;28.63;15.45;;;;;;;;;;5011034;28;20036;-89
2021/12/01 06:17:07;;;;;;;28.45;15.77;;;;;;;;;;5027625;28;20095;-88
2021/12/01 06:19:33;;;;;;;44.10;17.85;;;;;;;;;;5029319;28;20791;-89
2021/12/01 06:21:58;;;;;;;36.60;16.25;;;;;;;;;;5011148;28;20060;-88
2021/12/01 06:24:23;;;;;;;38.55;16.27;;;;;;;;;;5011028;28;20520;-89
2021/12/01 06:26:49;;;;;;;21.52;13.00;;;;;;;;;;5010882;28;20708;-88
2021/12/01 06:29:14;;;;;;;32.33;14.32;;;;;;;;;;5010992;28;20021;-89
2021/12/01 06:31:39;;;;;;;21.02;11.40;;;;;;;;;;5011015;28;20032;-88
2021/12/01 06:34:05;;;;;;;25.80;13.02;;;;;;;;;;5010716;28;20060;-89
2021/12/01 06:36:30;;;;;;;20.90;11.65;;;;;;;;;;4994568;28;20076;-89
2021/12/01 06:38:56;;;;;;;28.17;12.73;;;;;;;;;;5011143;28;20049;-89
2021/12/01 06:41:22;;;;;;;22.88;11.75;;;;;;;;;;5005965;28;20108;-89
2021/12/01 06:43:48;;;;;;;36.47;13.65;;;;;;;;;;5009485;28;20026;-89
2021/12/01 06:46:13;;;;;;;30.63;13.80;;;;;;;;;;4991494;28;20692;-89
2021/12/01 06:48:39;;;;;;;37.85;14.60;;;;;;;;;;5009340;28;20026;-89
2021/12/01 06:51:04;;;;;;;27.10;12.35;;;;;;;;;;4994445;28;20492;-89
2021/12/01 06:53:30;;;;;;;27.08;13.35;;;;;;;;;;5028580;28;20053;-89
2021/12/01 06:55:55;;;;;;;46.65;14.85;;;;;;;;;;5010533;28;20018;-88
2021/12/01 06:58:21;;;;;;;26.45;12.80;;;;;;;;;;5028999;28;20017;-89
2021/12/01 07:00:46;;;;;;;31.50;13.70;;;;;;;;;;5010666;28;20029;-88
2021/12/01 07:03:11;;;;;;;29.50;11.18;;;;;;;;;;5010125;28;20484;-88
2021/12/01 07:05:37;;;;;;;23.00;11.68;;;;;;;;;;5010801;28;20075;-88
2021/12/01 07:08:03;;;;;;;23.75;11.85;;;;;;;;;;5029327;28;20021;-89
2021/12/01 07:10:29;;;;;;;19.40;10.50;;;;;;;;;;5028618;28;20029;-89
2021/12/01 07:12:54;;;;;;;18.63;9.98;;;;;;;;;;5026791;28;20017;-89
2021/12/01 07:15:20;;;;;;;18.08;9.45;;;;;;;;;;5010578;28;20092;-89
2021/12/01 07:17:45;;;;;;;19.00;10.02;;;;;;;;;;5028057;28;20720;-89
2021/12/01 07:20:11;;;;;;;15.88;8.32;;;;;;;;;;5010456;28;20092;-88
2021/12/01 07:22:37;;;;;;;20.58;9.55;;;;;;;;;;5028349;28;20017;-89
2021/12/01 07:25:03;;;;;;;14.23;8.75;;;;;;;;;;5010413;28;20021;-88
2021/12/01 07:27:28;;;;;;;21.00;9.00;;;;;;;;;;5028826;28;20025;-89
2021/12/01 07:29:53;;;;;;;23.90;9.82;;;;;;;;;;5013553;28;20033;-89
2021/12/01 07:32:19;;;;;;;20.88;8.63;;;;;;;;;;5013519;28;20044;-89
2021/12/01 07:34:44;;;;;;;16.60;7.28;;;;;;;;;;5013314;28;20049;-88
2021/12/01 07:37:17;;;;;;;15.95;6.32;;;;;;;;;;5013845;28;20116;-88
2021/12/01 07:39:43;;;;;;;13.15;6.07;;;;;;;;;;5032273;28;20021;-88
2021/12/01 07:42:08;;;;;;;15.50;7.22;;;;;;;;;;5031703;28;20032;-88
2021/12/01 07:44:33;;;;;;;12.05;6.55;;;;;;;;;;5031946;28;20053;-88
2021/12/01 07:46:59;;;;;;;12.30;6.70;;;;;;;;;;5031694;28;20484;-88
2021/12/01 07:49:25;;;;;;;10.43;6.18;;;;;;;;;;5013916;28;20057;-88
2021/12/01 07:51:50;;;;;;;15.15;6.97;;;;;;;;;;5013790;28;20030;-88
2021/12/01 07:54:16;;;;;;;19.55;7.82;;;;;;;;;;5031800;28;20033;-88
2021/12/01 07:56:41;;;;;;;14.48;6.45;;;;;;;;;;5013340;28;20017;-88
2021/12/01 07:59:07;;;;;;;17.77;7.57;;;;;;;;;;5031042;28;20021;-88
2021/12/01 08:01:32;;;;;;;18.83;8.15;;;;;;;;;;5031834;28;20776;-88
2021/12/01 08:03:57;;;;;;;27.65;9.15;;;;;;;;;;5013246;28;20044;-88
2021/12/01 08:06:23;;;;;;;20.50;8.85;;;;;;;;;;5013598;28;20104;-88
2021/12/01 08:08:48;;;;;;;16.38;7.72;;;;;;;;;;5031443;28;20025;-88
2021/12/01 08:11:13;;;;;;;13.95;6.90;;;;;;;;;;5013363;28;20392;-88
2021/12/01 08:13:39;;;;;;;14.10;6.85;;;;;;;;;;5013436;28;20017;-88
2021/12/01 08:16:06;;;;;;;13.05;6.50;;;;;;;;;;5031920;28;20017;-88
2021/12/01 08:18:31;;;;;;;9.10;5.90;;;;;;;;;;5031749;28;20021;-88
2021/12/01 08:20:57;;;;;;;9.00;5.80;;;;;;;;;;5032539;28;20358;-88
2021/12/01 08:23:23;;;;;;;11.80;6.35;;;;;;;;;;5016853;28;20017;-88
2021/12/01 08:25:48;;;;;;;7.25;4.88;;;;;;;;;;5014068;28;20017;-88
2021/12/01 08:28:13;;;;;;;8.15;5.93;;;;;;;;;;5013306;28;20031;-88
2021/12/01 08:30:39;;;;;;;7.70;5.07;;;;;;;;;;5013019;28;20041;-88
2021/12/01 08:33:05;;;;;;;10.05;5.75;;;;;;;;;;5013129;28;20105;-88
2021/12/01 08:35:32;;;;;;;8.38;4.72;;;;;;;;;;5012508;28;20067;-89
2021/12/01 08:37:58;;;;;;;8.20;5.28;;;;;;;;;;5012119;28;20092;-88
2021/12/01 08:40:24;;;;;;;9.43;5.82;;;;;;;;;;5012051;28;20473;-88
2021/12/01 08:42:49;;;;;;;8.13;4.68;;;;;;;;;;5030813;28;20025;-88
2021/12/01 08:45:15;;;;;;;7.47;4.18;;;;;;;;;;5012940;28;20025;-88
2021/12/01 08:58:14;;;;;;;3.33;2.20;;;;;;;;;;5150495;22;20041;-88
2021/12/01 09:00:44;;;;;;;2.70;2.22;;;;;;;;;;5070284;28;20546;-89
2021/12/01 09:03:20;;;;;;;4.60;2.33;;;;;;;;;;5031346;28;20029;-91
2021/12/01 09:05:53;;;;;;;3.65;1.77;;;;;;;;;;5031006;28;20025;-91
2021/12/01 09:19:26;;;;;;;3.65;1.90;;;;;;;;;;6067951;23;20338;-91
2021/12/01 09:21:51;;;;;;;2.35;1.95;;;;;;;;;;5050784;28;20162;-89
2021/12/01 09:24:17;;;;;;;2.22;1.75;;;;;;;;;;5053158;28;20120;-89
2021/12/01 09:26:43;;;;;;;5.05;2.45;;;;;;;;;;5051793;28;20024;-88
2021/12/01 09:29:09;;;;;;;3.50;2.33;;;;;;;;;;5036691;28;20036;-89
2021/12/01 09:31:34;;;;;;;5.22;2.80;;;;;;;;;;5044500;28;20077;-89
2021/12/01 09:34:00;;;;;;;3.90;2.70;;;;;;;;;;5032109;28;20048;-89
2021/12/01 09:36:25;;;;;;;5.43;3.10;;;;;;;;;;5046419;28;20376;-89
2021/12/01 09:38:51;;;;;;;5.13;2.83;;;;;;;;;;5051430;28;20028;-89
2021/12/01 09:41:17;;;;;;;4.68;2.85;;;;;;;;;;5036284;28;20099;-89
2021/12/01 09:43:45;;;;;;;5.80;2.83;;;;;;;;;;5051337;28;20025;-89
2021/12/01 09:46:13;;;;;;;7.38;2.78;;;;;;;;;;5051220;28;20425;-89
2021/12/01 09:48:40;;;;;;;6.35;2.97;;;;;;;;;;5053133;28;20472;-88
2021/12/01 09:51:06;;;;;;;7.05;2.80;;;;;;;;;;5030881;28;20385;-89
2021/12/01 09:53:35;;;;;;;6.13;2.40;;;;;;;;;;5050136;28;20104;-89
2021/12/01 09:56:01;;;;;;;4.22;2.17;;;;;;;;;;5050541;28;20017;-89
2021/12/01 09:58:33;;;;;;;3.40;2.60;;;;;;;;;;5036129;28;20020;-88
2021/12/01 10:03:34;;;;;;;2.78;2.13;;;;;;;;;;5060935;22;20076;-89
2021/12/01 10:06:04;;;;;;;2.70;2.50;;;;;;;;;;5031274;28;20245;-90
2021/12/01 10:08:35;;;;;;;5.35;3.10;;;;;;;;;;5028908;28;20039;-89
2021/12/01 10:11:08;;;;;;;5.03;2.65;;;;;;;;;;5030914;28;20705;-89
2021/12/01 10:13:37;;;;;;;3.95;2.42;;;;;;;;;;5029685;28;20108;-89
2021/12/01 10:16:05;;;;;;;4.13;2.97;;;;;;;;;;5020257;28;20055;-89
2021/12/01 10:18:44;;;;;;;3.95;3.17;;;;;;;;;;5010639;28;20436;-89
2021/12/01 10:23:47;;;;;;;5.15;3.17;;;;;;;;;;5072900;22;20106;-89
2021/12/01 10:26:19;;;;;;;5.50;3.53;;;;;;;;;;5047590;28;20020;-89
2021/12/01 10:28:55;;;;;;;5.72;3.90;;;;;;;;;;5067452;28;20017;-89
2021/12/01 10:31:38;;;;;;;6.65;4.28;;;;;;;;;;5067375;28;20064;-88
2021/12/01 10:34:13;;;;;;;6.10;3.97;;;;;;;;;;5050314;28;20074;-88
2021/12/01 10:36:38;;;;;;;9.13;5.35;;;;;;;;;;5033880;28;20028;-89
2021/12/01 10:39:05;;;;;;;7.72;3.65;;;;;;;;;;5046895;28;20020;-88
2021/12/01 10:41:34;;;;;;;3.72;3.10;;;;;;;;;;5048031;28;20048;-89
2021/12/01 10:44:07;;;;;;;6.57;3.65;;;;;;;;;;5030204;28;20021;-88
2021/12/01 10:46:41;;;;;;;6.90;3.80;;;;;;;;;;5031647;28;20099;-89
2021/12/01 10:49:08;;;;;;;4.35;3.17;;;;;;;;;;5033676;28;20482;-89
2021/12/01 10:51:35;;;;;;;5.15;3.20;;;;;;;;;;5043229;28;20033;-88
2021/12/01 10:54:00;;;;;;;4.97;2.90;;;;;;;;;;5030177;28;20028;-89
2021/12/01 10:56:26;;;;;;;5.00;3.25;;;;;;;;;;5030538;28;20465;-88
2021/12/01 10:58:52;;;;;;;6.53;3.22;;;;;;;;;;5031046;28;20025;-89
2021/12/01 11:01:24;;;;;;;5.65;3.30;;;;;;;;;;5068575;28;20017;-88
2021/12/01 11:03:51;;;;;;;5.97;3.53;;;;;;;;;;5053879;28;20384;-88
2021/12/01 11:06:22;;;;;;;5.70;3.10;;;;;;;;;;5054917;28;20516;-89
2021/12/01 11:08:55;;;;;;;6.85;3.63;;;;;;;;;;5036674;28;20025;-89
2021/12/01 11:11:22;;;;;;;3.63;2.75;;;;;;;;;;5031130;28;20043;-86
2021/12/01 11:13:47;;;;;;;3.70;2.63;;;;;;;;;;5060005;28;20016;-86
2021/12/01 11:16:14;;;;;;;2.53;2.25;;;;;;;;;;5071165;28;20016;-87
2021/12/01 11:18:41;;;;;;;2.38;2.17;;;;;;;;;;5070193;28;20020;-89
2021/12/01 11:21:07;;;;;;;2.75;2.47;;;;;;;;;;5044267;28;20012;-89
2021/12/01 11:23:34;;;;;;;3.55;2.67;;;;;;;;;;5052246;28;20041;-89
2021/12/01 11:26:05;;;;;;;6.15;3.13;;;;;;;;;;5045080;28;20025;-89
2021/12/01 11:28:32;;;;;;;3.88;3.53;;;;;;;;;;5053363;28;20111;-89
2021/12/01 11:33:30;;;;;;;5.55;3.45;;;;;;;;;;5099346;22;20053;-89
2021/12/01 11:35:59;;;;;;;6.82;3.65;;;;;;;;;;5033731;28;21041;-89
2021/12/01 11:38:24;;;;;;;4.63;3.30;;;;;;;;;;5028216;28;20029;-89
2021/12/01 11:40:50;;;;;;;10.40;3.25;;;;;;;;;;5031273;28;20025;-89
2021/12/01 11:43:18;;;;;;;10.55;3.58;;;;;;;;;;5014437;28;20153;-89
2021/12/01 11:45:45;;;;;;;6.95;2.78;;;;;;;;;;5014498;28;20021;-89
2021/12/01 11:48:16;;;;;;;9.57;2.75;;;;;;;;;;5024865;28;20033;-89
2021/12/01 11:51:00;;;;;;;8.43;3.08;;;;;;;;;;5034567;28;20092;-90
2021/12/01 11:53:32;;;;;;;11.20;2.30;;;;;;;;;;5023621;28;20493;-88
2021/12/01 11:56:04;;;;;;;14.77;2.80;;;;;;;;;;5024394;28;20405;-88
2021/12/01 11:58:41;;;;;;;14.25;2.83;;;;;;;;;;5014910;28;20477;-89
2021/12/01 12:01:26;;;;;;;20.45;3.55;;;;;;;;;;5013773;28;20025;-89
2021/12/01 12:03:59;;;;;;;16.60;2.95;;;;;;;;;;5031654;28;20115;-89
2021/12/01 12:06:25;;;;;;;20.15;2.88;;;;;;;;;;5027747;28;20021;-89
2021/12/01 12:08:55;;;;;;;14.75;3.85;;;;;;;;;;5031140;22;20786;-89
2021/12/01 12:11:39;;;;;;;22.13;3.40;;;;;;;;;;5023532;28;20043;-89
2021/12/01 12:17:00;;;;;;;30.65;5.72;;;;;;;;;;4539636;22;20057;-89
2021/12/01 12:19:44;;;;;;;25.23;3.30;;;;;;;;;;5054618;28;20371;-89
2021/12/01 12:22:10;;;;;;;28.90;4.28;;;;;;;;;;5052502;28;20028;-89
2021/12/01 12:24:44;;;;;;;29.52;4.35;;;;;;;;;;5052104;28;20104;-90
2021/12/01 12:27:45;;;;;;;24.08;3.70;;;;;;;;;;5052677;28;20506;-89
2021/12/01 12:30:10;;;;;;;20.58;2.92;;;;;;;;;;4956920;28;20098;-89
2021/12/01 12:32:38;;;;;;;22.73;3.00;;;;;;;;;;5011746;28;20041;-89
2021/12/01 12:35:17;;;;;;;17.75;3.92;;;;;;;;;;5031477;28;20139;-89
2021/12/01 12:37:46;;;;;;;26.20;3.63;;;;;;;;;;5028889;28;20113;-88
2021/12/01 12:40:21;;;;;;;14.10;2.60;;;;;;;;;;5039174;22;20053;-89
2021/12/01 12:43:08;;;;;;;18.52;4.38;;;;;;;;;;5030887;28;20025;-89
2021/12/01 12:45:35;;;;;;;19.73;2.92;;;;;;;;;;5030692;28;20116;-89
2021/12/01 12:48:00;;;;;;;20.63;4.00;;;;;;;;;;5031550;28;20065;-88
2021/12/01 12:50:27;;;;;;;15.35;3.33;;;;;;;;;;5030071;28;20072;-88
2021/12/01 12:53:06;;;;;;;18.70;3.88;;;;;;;;;;5049415;28;20029;-88
2021/12/01 12:55:38;;;;;;;23.33;3.38;;;;;;;;;;5028031;28;20032;-89
2021/12/01 12:58:08;;;;;;;28.40;4.80;;;;;;;;;;5028560;28;20120;-88
2021/12/01 13:05:46;;;;;;;25.55;4.22;;;;;;;;;;5461152;22;2138136;-88
2021/12/01 13:08:31;;;;;;;17.67;4.13;;;;;;;;;;5031889;28;20036;-88
2021/12/01 13:11:06;;;;;;;22.85;4.35;;;;;;;;;;5029457;28;20175;-88
2021/12/01 13:13:36;;;;;;;19.70;3.70;;;;;;;;;;5030504;28;20047;-88
2021/12/01 13:16:02;;;;;;;36.33;4.90;;;;;;;;;;5033102;28;20029;-89
2021/12/01 13:20:58;;;;;;;41.90;5.22;;;;;;;;;;5013174;22;20060;-89
2021/12/01 13:23:31;;;;;;;39.92;7.82;;;;;;;;;;4992507;28;20021;-90
2021/12/01 13:26:03;;;;;;;38.58;4.88;;;;;;;;;;4991831;28;20021;-90
2021/12/01 13:28:32;;;;;;;30.65;5.60;;;;;;;;;;4992609;28;20267;-90
2021/12/01 13:33:30;;;;;;;39.47;5.95;;;;;;;;;;5124308;22;20060;-92
2021/12/01 13:36:16;;;;;;;33.78;6.10;;;;;;;;;;5063047;28;20841;-91
2021/12/01 13:38:46;;;;;;;46.00;5.22;;;;;;;;;;5053298;28;20028;-91
2021/12/01 13:41:17;;;;;;;42.72;6.15;;;;;;;;;;5032004;22;20045;-91
2021/12/01 13:43:43;;;;;;;42.72;5.03;;;;;;;;;;5009163;28;20030;-91
2021/12/01 13:46:10;;;;;;;46.35;6.68;;;;;;;;;;4994079;28;20030;-90
2021/12/01 13:48:48;;;;;;;43.70;5.55;;;;;;;;;;4992524;28;20100;-91
2021/12/01 13:51:16;;;;;;;42.83;6.43;;;;;;;;;;4993646;28;20054;-91
2021/12/01 13:53:41;;;;;;;59.85;6.18;;;;;;;;;;4993487;28;20384;-90
2021/12/01 13:56:15;;;;;;;45.70;5.75;;;;;;;;;;4993707;28;20028;-90
2021/12/01 13:58:41;;;;;;;44.67;5.50;;;;;;;;;;4990750;28;20030;-90
2021/12/01 14:01:12;;;;;;;53.10;6.57;;;;;;;;;;5011781;28;20018;-89
2021/12/01 14:03:40;;;;;;;;;;;;;;;;;;4993904;28;20033;-89
2021/12/01 14:06:07;;;;;;;50.33;6.93;;;;;;;;;;5010015;28;19956;-90
2021/12/01 14:08:32;;;;;;;53.15;7.03;;;;;;;;;;4993166;28;20425;-90
2021/12/01 14:11:00;;;;;;;42.70;5.87;;;;;;;;;;4993158;28;20080;-90
2021/12/01 14:13:28;;;;;;;52.88;7.57;;;;;;;;;;4993528;28;20272;-90
2021/12/01 14:15:53;;;;;;;46.45;7.13;;;;;;;;;;5011876;28;20030;-90
2021/12/01 14:18:18;;;;;;;50.17;7.88;;;;;;;;;;4993945;28;20053;-90
2021/12/01 14:20:44;;;;;;;40.38;5.32;;;;;;;;;;5009971;28;20046;-91
2021/12/01 14:23:10;;;;;;;44.58;7.35;;;;;;;;;;5009477;28;20022;-90
2021/12/01 14:25:35;;;;;;;47.72;5.50;;;;;;;;;;5010183;28;20026;-91
2021/12/01 14:28:05;;;;;;;35.22;5.55;;;;;;;;;;5010151;28;20029;-90
2021/12/01 14:30:31;;;;;;;28.15;4.30;;;;;;;;;;4993198;28;20133;-91
2021/12/01 14:32:57;;;;;;;36.35;4.70;;;;;;;;;;5029796;28;20104;-89
2021/12/01 14:35:24;;;;;;;31.67;5.35;;;;;;;;;;5035417;28;20580;-88
2021/12/01 14:37:54;;;;;;;29.80;4.85;;;;;;;;;;5010898;28;20076;-88
2021/12/01 14:40:20;;;;;;;33.95;5.05;;;;;;;;;;5010818;28;20160;-89
2021/12/01 14:42:50;;;;;;;33.33;4.50;;;;;;;;;;5032598;28;20061;-89
2021/12/01 14:45:19;;;;;;;29.77;4.13;;;;;;;;;;5028607;28;20032;-89
2021/12/01 14:48:09;;;;;;;29.02;4.05;;;;;;;;;;5025653;28;20036;-89
2021/12/01 14:50:36;;;;;;;39.20;4.30;;;;;;;;;;5231967;22;20742;-88
2021/12/01 14:53:04;;;;;;;29.75;4.97;;;;;;;;;;5028052;28;20029;-88
2021/12/01 14:58:14;;;;;;;35.10;5.25;;;;;;;;;;5090434;22;20061;-88
2021/12/01 15:00:49;;;;;;;28.73;5.05;;;;;;;;;;5050048;28;20119;-88
2021/12/01 15:03:18;;;;;;;34.88;5.20;;;;;;;;;;5051321;28;20086;-88
2021/12/01 15:05:51;;;;;;;34.85;6.65;;;;;;;;;;5042177;28;20087;-89
2021/12/01 15:08:31;;;;;;;35.15;5.72;;;;;;;;;;5042744;28;20178;-89
2021/12/01 15:10:59;;;;;;;45.17;7.18;;;;;;;;;;5050221;28;20040;-89
2021/12/01 15:13:30;;;;;;;56.33;6.68;;;;;;;;;;5050060;28;20108;-89
2021/12/01 15:16:01;;;;;;;54.50;7.53;;;;;;;;;;5047987;28;20060;-88
2021/12/01 15:18:30;;;;;;;57.88;9.40;;;;;;;;;;5059286;28;20066;-88
2021/12/01 15:21:02;;;;;;;49.83;6.50;;;;;;;;;;5050803;28;20547;-88
2021/12/01 15:23:42;;;;;;;52.50;7.68;;;;;;;;;;5058190;28;20025;-88
2021/12/01 15:26:10;;;;;;;50.50;6.25;;;;;;;;;;5041846;28;20407;-88
2021/12/01 15:28:38;;;;;;;53.00;8.05;;;;;;;;;;5050137;28;20119;-88